FMEE/RUN METAR and TAF weather

Enter ICAO airport designator
Station Type Date Time Source
FMEE METAR 2020/02/21 15:30 UTC NOAA

FMEE 211530Z AUTO 12008KT 9999 OVC068/// ///TCU 26/20 Q1013


Station Type Date Time Source
FMEE Decoded METAR 2020/02/21 15:30 UTC NOAA

Saint-Denis / Gillot, Reunion (FMEE) 20-53S 055-31E 25M
Feb 21, 2020 - 10:30 AM EST / 2020.02.21 1530 UTC
Wind: from the ESE (120 degrees) at 9 MPH (8 KT):0
Visibility: greater than 7 mile(s):0
Sky conditions: overcast
Weather: Towering cumulus clouds observed
Temperature: 78 F (26 C)
Dew Point: 68 F (20 C)
Relative Humidity: 69%
Pressure (altimeter): 29.91 in. Hg (1013 hPa)
ob: FMEE 211530Z AUTO 12008KT 9999 OVC068/// ///TCU 26/20 Q1013
cycle: 15

Station Type Date Time Source
FMEE TAF 2020/02/21 15:03 UTC NOAA

TAF FMEE 211459Z 2115/2218 CNL

Example: see airport list